Time;durP1;ratioP1;P1;durP2;ratioP2;P2;SDS_P1;SDS_P2;PMS_P1;PMS_P2;Temp;Humidity;BMP_temperature;BMP_pressure;BME280_temperature;BME280_humidity;BME280_pressure;Samples;Min_cycle;Max_cycle;Signal;HPM_P1;HPM_P2
2023/04/15 00:00:52;;;;;;;9.10;7.73;;;;;;;;;;5106008;28;20475;-70
2023/04/15 00:03:18;;;;;;;9.57;7.80;;;;;;;;;;5102360;28;20628;-70
2023/04/15 00:05:46;;;;;;;8.83;7.20;;;;;;;;;;5100946;28;20990;-70
2023/04/15 00:08:14;;;;;;;9.50;7.70;;;;;;;;;;5103154;28;21002;-69
2023/04/15 00:10:42;;;;;;;12.73;7.80;;;;;;;;;;5096796;27;20468;-69
2023/04/15 00:13:09;;;;;;;10.47;8.90;;;;;;;;;;5082754;28;20494;-69
2023/04/15 00:15:36;;;;;;;10.70;8.03;;;;;;;;;;5084743;28;20541;-69
2023/04/15 00:18:03;;;;;;;10.40;8.30;;;;;;;;;;5102018;28;20538;-69
2023/04/15 00:20:29;;;;;;;12.43;8.07;;;;;;;;;;5101473;28;20485;-69
2023/04/15 00:22:58;;;;;;;9.20;7.20;;;;;;;;;;5101522;28;20538;-69
2023/04/15 00:25:24;;;;;;;9.53;8.30;;;;;;;;;;5103481;28;20469;-69
2023/04/15 00:27:51;;;;;;;11.90;8.10;;;;;;;;;;5081410;28;20468;-70
2023/04/15 00:30:17;;;;;;;13.33;9.00;;;;;;;;;;5084617;28;20535;-70
2023/04/15 00:32:44;;;;;;;11.87;8.73;;;;;;;;;;5101421;28;20465;-69
2023/04/15 00:35:11;;;;;;;11.50;8.00;;;;;;;;;;5100225;28;20477;-70
2023/04/15 00:37:37;;;;;;;10.70;8.57;;;;;;;;;;5092015;28;20479;-70
2023/04/15 00:40:06;;;;;;;10.00;8.57;;;;;;;;;;5084374;28;20459;-70
2023/04/15 00:42:36;;;;;;;10.57;9.40;;;;;;;;;;5106338;28;20471;-70
2023/04/15 00:45:02;;;;;;;12.07;9.37;;;;;;;;;;5104871;28;20461;-69
2023/04/15 00:47:29;;;;;;;13.53;9.60;;;;;;;;;;5107849;27;20509;-69
2023/04/15 00:49:55;;;;;;;10.67;9.47;;;;;;;;;;5114658;28;20466;-69
2023/04/15 00:52:22;;;;;;;12.13;8.77;;;;;;;;;;5085047;28;20503;-69
2023/04/15 00:54:50;;;;;;;11.67;10.30;;;;;;;;;;5085093;28;20529;-69
2023/04/15 00:57:17;;;;;;;12.60;10.00;;;;;;;;;;5104292;28;20483;-69
2023/04/15 00:59:44;;;;;;;12.17;9.73;;;;;;;;;;5113026;28;20477;-69
2023/04/15 01:02:10;;;;;;;13.17;9.27;;;;;;;;;;5092374;27;20495;-69
2023/04/15 01:04:37;;;;;;;12.80;8.73;;;;;;;;;;5087427;28;20487;-70
2023/04/15 01:07:03;;;;;;;10.30;8.97;;;;;;;;;;5101550;28;20897;-69
2023/04/15 01:09:30;;;;;;;10.57;9.27;;;;;;;;;;5105823;28;20447;-69
2023/04/15 01:11:57;;;;;;;9.90;8.73;;;;;;;;;;5122362;27;20486;-70
2023/04/15 01:14:25;;;;;;;12.23;10.10;;;;;;;;;;5127209;27;20509;-69
2023/04/15 01:16:52;;;;;;;14.50;10.07;;;;;;;;;;5110073;27;20508;-69
2023/04/15 01:19:20;;;;;;;13.70;10.03;;;;;;;;;;5107605;28;20531;-69
2023/04/15 01:21:46;;;;;;;19.63;11.33;;;;;;;;;;5117514;27;20485;-69
2023/04/15 01:24:13;;;;;;;15.00;10.80;;;;;;;;;;5124464;28;20934;-69
2023/04/15 01:26:41;;;;;;;14.90;12.70;;;;;;;;;;5115907;27;20483;-69
2023/04/15 01:29:08;;;;;;;13.50;11.13;;;;;;;;;;5105525;28;20456;-69
2023/04/15 01:31:35;;;;;;;13.93;11.27;;;;;;;;;;5103100;28;20478;-69
2023/04/15 01:34:01;;;;;;;14.10;11.53;;;;;;;;;;5108591;28;20814;-69
2023/04/15 01:36:28;;;;;;;18.17;13.47;;;;;;;;;;5116873;27;20517;-69
2023/04/15 01:38:55;;;;;;;14.20;11.37;;;;;;;;;;5124579;28;20453;-69
2023/04/15 01:41:24;;;;;;;13.67;11.67;;;;;;;;;;5129963;27;21021;-69
2023/04/15 01:43:52;;;;;;;16.00;12.73;;;;;;;;;;5123707;27;20522;-70
2023/04/15 01:46:18;;;;;;;14.87;10.87;;;;;;;;;;5123080;28;20485;-70
2023/04/15 01:48:45;;;;;;;14.60;11.03;;;;;;;;;;5125143;27;20450;-69
2023/04/15 01:51:11;;;;;;;14.83;12.30;;;;;;;;;;5122714;27;20527;-66
2023/04/15 01:53:38;;;;;;;15.40;11.97;;;;;;;;;;5124168;27;20453;-68
2023/04/15 01:56:04;;;;;;;14.40;11.00;;;;;;;;;;5127309;27;20497;-66
2023/04/15 01:58:31;;;;;;;13.87;11.53;;;;;;;;;;5123843;27;20533;-66
2023/04/15 02:00:59;;;;;;;13.00;10.90;;;;;;;;;;5122804;27;20517;-66
2023/04/15 02:03:26;;;;;;;12.90;11.17;;;;;;;;;;5122982;28;20509;-66
2023/04/15 02:05:52;;;;;;;15.77;11.97;;;;;;;;;;5115100;28;20485;-66
2023/04/15 02:08:19;;;;;;;14.70;11.37;;;;;;;;;;5104007;28;20510;-66
2023/04/15 02:10:45;;;;;;;14.97;11.77;;;;;;;;;;5102369;28;20558;-66
2023/04/15 02:13:11;;;;;;;13.93;11.80;;;;;;;;;;5102697;28;20483;-66
2023/04/15 02:15:38;;;;;;;13.93;11.10;;;;;;;;;;5109602;28;20505;-66
2023/04/15 02:18:06;;;;;;;14.07;11.43;;;;;;;;;;5102040;28;20466;-66
2023/04/15 02:20:33;;;;;;;12.10;10.53;;;;;;;;;;5095403;28;20479;-66
2023/04/15 02:22:59;;;;;;;13.23;11.37;;;;;;;;;;5102381;28;20457;-66
2023/04/15 02:25:26;;;;;;;13.83;11.93;;;;;;;;;;5118343;27;20455;-66
2023/04/15 02:27:53;;;;;;;15.30;11.07;;;;;;;;;;5123548;28;20502;-66
2023/04/15 02:30:19;;;;;;;13.80;11.03;;;;;;;;;;5122119;28;20454;-66
2023/04/15 02:32:46;;;;;;;16.17;12.20;;;;;;;;;;5122018;28;20469;-66
2023/04/15 02:35:13;;;;;;;12.83;10.27;;;;;;;;;;5121635;28;20454;-66
2023/04/15 02:37:42;;;;;;;11.50;9.77;;;;;;;;;;5093239;28;20478;-66
2023/04/15 02:40:10;;;;;;;15.07;10.83;;;;;;;;;;5103369;28;20967;-66
2023/04/15 02:42:37;;;;;;;14.20;11.17;;;;;;;;;;5099853;28;20510;-65
2023/04/15 02:45:03;;;;;;;12.67;10.40;;;;;;;;;;5102213;28;21001;-66
2023/04/15 02:47:30;;;;;;;11.83;10.50;;;;;;;;;;5122102;27;20880;-66
2023/04/15 02:49:57;;;;;;;13.30;9.80;;;;;;;;;;5122253;28;20533;-66
2023/04/15 02:52:25;;;;;;;13.87;10.80;;;;;;;;;;5102825;28;20574;-66
2023/04/15 02:54:52;;;;;;;11.40;10.03;;;;;;;;;;5102413;28;20479;-66
2023/04/15 02:57:19;;;;;;;11.87;10.27;;;;;;;;;;5120576;28;20474;-66
2023/04/15 02:59:45;;;;;;;13.50;10.27;;;;;;;;;;5122693;28;20470;-66
2023/04/15 03:02:12;;;;;;;12.87;11.57;;;;;;;;;;5103372;28;20574;-66
2023/04/15 03:04:38;;;;;;;13.57;11.90;;;;;;;;;;5096394;28;20529;-66
2023/04/15 03:07:05;;;;;;;13.00;11.67;;;;;;;;;;5119433;28;20997;-66
2023/04/15 03:09:32;;;;;;;14.67;11.97;;;;;;;;;;5123161;28;20476;-65
2023/04/15 03:11:59;;;;;;;16.40;11.63;;;;;;;;;;5117653;28;20508;-66
2023/04/15 03:14:25;;;;;;;13.80;11.70;;;;;;;;;;5103589;28;20447;-66
2023/04/15 03:16:52;;;;;;;13.83;10.40;;;;;;;;;;5101817;28;20475;-67
2023/04/15 03:19:18;;;;;;;13.20;10.90;;;;;;;;;;5103436;28;20482;-66
2023/04/15 03:21:45;;;;;;;12.83;10.23;;;;;;;;;;5101441;28;20543;-66
2023/04/15 03:24:11;;;;;;;12.47;10.87;;;;;;;;;;5101375;28;20447;-66
2023/04/15 03:26:39;;;;;;;14.40;11.73;;;;;;;;;;5113563;28;21748;-66
2023/04/15 03:29:06;;;;;;;15.50;11.83;;;;;;;;;;5122571;28;20446;-66
2023/04/15 03:31:32;;;;;;;13.10;11.00;;;;;;;;;;5109802;28;20471;-66
2023/04/15 03:33:58;;;;;;;14.07;12.10;;;;;;;;;;5101880;28;20455;-67
2023/04/15 03:36:26;;;;;;;13.03;10.40;;;;;;;;;;5112668;28;20566;-66
2023/04/15 03:38:52;;;;;;;13.27;10.90;;;;;;;;;;5122149;28;20445;-66
2023/04/15 03:41:18;;;;;;;14.10;10.60;;;;;;;;;;5111612;28;20518;-67
2023/04/15 03:43:46;;;;;;;12.90;11.50;;;;;;;;;;5110814;28;20481;-67
2023/04/15 03:46:13;;;;;;;13.07;11.33;;;;;;;;;;5102017;28;20522;-67
2023/04/15 03:48:39;;;;;;;14.13;9.63;;;;;;;;;;5102981;28;20451;-67
2023/04/15 03:51:05;;;;;;;12.87;10.47;;;;;;;;;;5101967;28;20492;-67
2023/04/15 03:53:32;;;;;;;12.80;11.30;;;;;;;;;;5106668;28;20482;-67
2023/04/15 03:55:58;;;;;;;13.23;10.43;;;;;;;;;;5108464;28;20556;-67
2023/04/15 03:58:25;;;;;;;13.20;11.27;;;;;;;;;;5125277;28;20533;-68
2023/04/15 04:00:53;;;;;;;14.67;11.03;;;;;;;;;;5123167;28;20528;-67
2023/04/15 04:03:20;;;;;;;13.57;9.93;;;;;;;;;;5121377;28;20557;-67
2023/04/15 04:05:46;;;;;;;13.50;11.87;;;;;;;;;;5116108;28;20498;-67
2023/04/15 04:08:15;;;;;;;13.20;11.03;;;;;;;;;;5110963;28;20536;-67
2023/04/15 04:10:41;;;;;;;14.00;11.53;;;;;;;;;;5104925;28;20490;-67
2023/04/15 04:13:07;;;;;;;17.70;12.10;;;;;;;;;;5103026;28;20483;-67
2023/04/15 04:15:34;;;;;;;14.80;12.00;;;;;;;;;;5110884;28;20498;-67
2023/04/15 04:18:02;;;;;;;13.93;11.50;;;;;;;;;;5108348;28;20451;-67
2023/04/15 04:20:30;;;;;;;15.33;12.93;;;;;;;;;;5096042;28;20500;-67
2023/04/15 04:22:57;;;;;;;15.77;12.77;;;;;;;;;;5104966;28;20462;-66
2023/04/15 04:25:23;;;;;;;15.63;11.33;;;;;;;;;;5113172;27;20481;-67
2023/04/15 04:27:50;;;;;;;15.87;12.80;;;;;;;;;;5126975;27;20457;-67
2023/04/15 04:30:16;;;;;;;15.07;12.07;;;;;;;;;;5131348;27;20479;-67
2023/04/15 04:32:43;;;;;;;15.97;11.83;;;;;;;;;;5130333;27;20505;-67
2023/04/15 04:35:10;;;;;;;14.60;12.63;;;;;;;;;;5125843;27;20486;-67
2023/04/15 04:37:37;;;;;;;13.40;12.00;;;;;;;;;;5125320;28;20442;-68
2023/04/15 04:40:04;;;;;;;13.43;11.47;;;;;;;;;;5126012;27;20537;-67
2023/04/15 04:42:30;;;;;;;16.13;13.00;;;;;;;;;;5109919;28;20542;-67
2023/04/15 04:44:56;;;;;;;15.43;12.97;;;;;;;;;;5105556;28;20455;-67
2023/04/15 04:47:23;;;;;;;15.53;13.93;;;;;;;;;;5124270;27;20515;-66
2023/04/15 04:49:49;;;;;;;15.47;13.50;;;;;;;;;;5124593;28;20474;-66
2023/04/15 04:52:17;;;;;;;15.27;12.60;;;;;;;;;;5109894;28;20512;-66
2023/04/15 04:54:43;;;;;;;17.20;13.23;;;;;;;;;;5104956;28;20500;-66
2023/04/15 04:57:12;;;;;;;14.33;11.77;;;;;;;;;;5104154;28;20546;-67
2023/04/15 04:59:38;;;;;;;16.53;12.70;;;;;;;;;;5117051;28;20500;-67
2023/04/15 05:02:05;;;;;;;14.80;11.77;;;;;;;;;;5128236;27;20520;-66
2023/04/15 05:04:31;;;;;;;13.93;12.10;;;;;;;;;;5127413;27;20872;-66
2023/04/15 05:06:58;;;;;;;13.73;12.20;;;;;;;;;;5129852;27;20474;-66
2023/04/15 05:09:26;;;;;;;15.40;12.47;;;;;;;;;;5126710;27;20485;-66
2023/04/15 05:11:52;;;;;;;14.80;12.20;;;;;;;;;;5109571;28;20518;-66
2023/04/15 05:14:18;;;;;;;17.87;13.10;;;;;;;;;;5108491;28;20481;-66
2023/04/15 05:16:45;;;;;;;15.70;13.33;;;;;;;;;;5106812;28;20486;-66
2023/04/15 05:19:11;;;;;;;14.77;13.00;;;;;;;;;;5109512;28;20462;-66
2023/04/15 05:21:38;;;;;;;17.90;14.43;;;;;;;;;;5108523;28;20499;-67
2023/04/15 05:24:04;;;;;;;17.53;12.60;;;;;;;;;;5109216;28;20446;-66
2023/04/15 05:26:32;;;;;;;14.47;12.77;;;;;;;;;;5107316;28;20498;-67
2023/04/15 05:28:58;;;;;;;19.47;14.97;;;;;;;;;;5105014;28;20475;-67
2023/04/15 05:31:25;;;;;;;15.53;13.17;;;;;;;;;;5124550;27;21051;-67
2023/04/15 05:33:51;;;;;;;15.43;12.93;;;;;;;;;;5125136;28;20489;-66
2023/04/15 05:36:18;;;;;;;16.23;12.57;;;;;;;;;;5113889;28;20470;-66
2023/04/15 05:38:44;;;;;;;15.60;13.80;;;;;;;;;;5104549;28;20906;-66
2023/04/15 05:41:11;;;;;;;14.57;12.90;;;;;;;;;;5112332;28;20481;-66
2023/04/15 05:43:39;;;;;;;18.40;13.07;;;;;;;;;;5124108;28;20829;-66
2023/04/15 05:46:05;;;;;;;16.20;13.37;;;;;;;;;;5118668;27;20475;-66
2023/04/15 05:48:32;;;;;;;16.63;12.90;;;;;;;;;;5104714;28;20470;-66
2023/04/15 05:50:58;;;;;;;18.77;13.60;;;;;;;;;;5110482;27;20470;-66
2023/04/15 05:53:24;;;;;;;16.53;14.33;;;;;;;;;;5123398;28;20483;-65
2023/04/15 05:55:51;;;;;;;16.73;13.60;;;;;;;;;;5121319;28;20901;-72
2023/04/15 05:58:17;;;;;;;19.10;13.20;;;;;;;;;;5123634;27;20461;-72
2023/04/15 06:00:46;;;;;;;16.67;14.10;;;;;;;;;;5122660;28;20492;-72
2023/04/15 06:03:12;;;;;;;19.60;15.73;;;;;;;;;;5120257;27;20547;-73
2023/04/15 06:05:39;;;;;;;18.50;14.47;;;;;;;;;;5122165;28;20494;-73
2023/04/15 06:08:06;;;;;;;19.50;14.43;;;;;;;;;;5124561;27;20458;-73
2023/04/15 06:10:35;;;;;;;19.13;14.70;;;;;;;;;;5121206;28;20533;-72
2023/04/15 06:13:01;;;;;;;19.73;14.77;;;;;;;;;;5122271;27;21052;-72
2023/04/15 06:15:28;;;;;;;19.70;14.53;;;;;;;;;;5119075;28;20478;-73
2023/04/15 06:17:56;;;;;;;16.17;13.23;;;;;;;;;;5113162;28;20484;-71
2023/04/15 06:20:22;;;;;;;19.00;14.40;;;;;;;;;;5101425;28;20450;-71
2023/04/15 06:22:49;;;;;;;22.87;14.47;;;;;;;;;;5101630;28;20459;-71
2023/04/15 06:25:15;;;;;;;17.60;13.00;;;;;;;;;;5104117;28;20450;-71
2023/04/15 06:27:42;;;;;;;23.70;14.50;;;;;;;;;;5103116;28;20490;-71
2023/04/15 06:30:08;;;;;;;18.87;14.43;;;;;;;;;;5101231;28;20474;-71
2023/04/15 06:32:35;;;;;;;23.97;15.70;;;;;;;;;;5115220;28;20513;-71
2023/04/15 06:35:03;;;;;;;21.23;16.77;;;;;;;;;;5116896;28;20442;-71
2023/04/15 06:37:30;;;;;;;18.83;14.80;;;;;;;;;;5100636;28;20548;-71
2023/04/15 06:39:56;;;;;;;19.17;15.23;;;;;;;;;;5100902;28;20459;-72
2023/04/15 06:42:23;;;;;;;22.60;15.80;;;;;;;;;;5101838;28;20483;-71
2023/04/15 06:44:50;;;;;;;23.60;18.17;;;;;;;;;;5101995;28;20948;-71
2023/04/15 06:47:16;;;;;;;23.33;17.40;;;;;;;;;;5106459;28;21014;-71
2023/04/15 06:49:43;;;;;;;26.17;18.30;;;;;;;;;;5102313;28;20454;-71
2023/04/15 06:52:11;;;;;;;27.90;18.73;;;;;;;;;;5106595;28;20477;-71
2023/04/15 06:54:38;;;;;;;25.30;19.50;;;;;;;;;;5105081;28;20462;-71
2023/04/15 06:57:04;;;;;;;27.90;19.53;;;;;;;;;;5121000;27;20470;-71
2023/04/15 06:59:31;;;;;;;33.37;22.07;;;;;;;;;;5124294;27;20457;-71
2023/04/15 07:01:58;;;;;;;33.97;23.07;;;;;;;;;;5107665;28;20493;-71
2023/04/15 07:04:24;;;;;;;34.37;23.57;;;;;;;;;;5121374;27;20453;-71
2023/04/15 07:06:52;;;;;;;39.17;24.93;;;;;;;;;;5108735;28;20478;-71
2023/04/15 07:09:20;;;;;;;36.77;24.30;;;;;;;;;;5114650;27;20845;-71
2023/04/15 07:11:47;;;;;;;38.17;26.20;;;;;;;;;;5116783;28;20485;-71
2023/04/15 07:14:13;;;;;;;39.20;26.57;;;;;;;;;;5099909;28;20533;-71
2023/04/15 07:16:39;;;;;;;39.30;25.90;;;;;;;;;;5124565;28;20535;-71
2023/04/15 07:19:06;;;;;;;44.23;26.23;;;;;;;;;;5111532;28;20496;-71
2023/04/15 07:21:32;;;;;;;40.83;25.80;;;;;;;;;;5098493;28;20556;-71
2023/04/15 07:23:59;;;;;;;42.53;26.40;;;;;;;;;;5090534;28;20988;-71
2023/04/15 07:26:26;;;;;;;33.33;22.23;;;;;;;;;;5107820;28;20538;-71
2023/04/15 07:28:53;;;;;;;31.80;21.97;;;;;;;;;;5115161;28;20560;-71
2023/04/15 07:31:19;;;;;;;31.13;20.43;;;;;;;;;;5104194;28;21093;-71
2023/04/15 07:33:46;;;;;;;31.10;20.40;;;;;;;;;;5112302;28;21001;-71
2023/04/15 07:36:12;;;;;;;25.40;18.50;;;;;;;;;;5115430;28;20478;-70
2023/04/15 07:38:39;;;;;;;25.50;18.60;;;;;;;;;;5118993;28;20446;-73
2023/04/15 07:41:06;;;;;;;27.10;17.97;;;;;;;;;;5104229;28;20475;-70
2023/04/15 07:43:33;;;;;;;24.80;16.17;;;;;;;;;;5120867;28;20469;-69
2023/04/15 07:46:00;;;;;;;22.83;16.90;;;;;;;;;;5122094;28;20533;-70
2023/04/15 07:48:26;;;;;;;20.70;15.00;;;;;;;;;;5105092;28;20917;-70
2023/04/15 07:50:53;;;;;;;22.80;15.37;;;;;;;;;;5113243;28;20497;-70
2023/04/15 07:53:20;;;;;;;22.90;15.10;;;;;;;;;;5125575;27;20542;-70
2023/04/15 07:55:46;;;;;;;21.00;15.20;;;;;;;;;;5119838;27;20504;-70
2023/04/15 07:58:13;;;;;;;19.87;14.77;;;;;;;;;;5112937;28;20527;-70
2023/04/15 08:00:40;;;;;;;20.77;14.27;;;;;;;;;;5120823;28;20470;-71
2023/04/15 08:03:07;;;;;;;19.87;13.43;;;;;;;;;;5120589;28;20529;-70
2023/04/15 08:05:34;;;;;;;18.17;13.30;;;;;;;;;;5113751;28;20975;-71
2023/04/15 08:08:00;;;;;;;19.67;14.83;;;;;;;;;;5108339;28;20515;-70
2023/04/15 08:10:26;;;;;;;17.30;13.47;;;;;;;;;;5119323;27;20470;-70
2023/04/15 08:12:54;;;;;;;16.07;12.30;;;;;;;;;;5120036;28;20944;-70
2023/04/15 08:15:21;;;;;;;19.80;13.50;;;;;;;;;;5121023;28;20454;-70
2023/04/15 08:17:49;;;;;;;19.30;12.43;;;;;;;;;;5120655;27;20454;-70
2023/04/15 08:20:15;;;;;;;21.30;13.87;;;;;;;;;;5119946;28;20445;-70
2023/04/15 08:22:42;;;;;;;19.40;14.00;;;;;;;;;;5126213;27;20478;-70
2023/04/15 08:25:09;;;;;;;16.93;13.47;;;;;;;;;;5115469;28;20451;-71
2023/04/15 08:27:35;;;;;;;17.47;13.10;;;;;;;;;;5111099;28;20512;-71
2023/04/15 08:30:02;;;;;;;16.33;13.00;;;;;;;;;;5103301;28;20457;-71
2023/04/15 08:32:39;;;;;;;17.07;13.20;;;;;;;;;;5128322;27;20506;-71
2023/04/15 08:35:08;;;;;;;17.63;13.57;;;;;;;;;;5124975;28;20461;-70
2023/04/15 08:37:34;;;;;;;19.20;14.47;;;;;;;;;;5124827;27;20708;-70
2023/04/15 08:40:00;;;;;;;17.60;13.50;;;;;;;;;;5130153;27;20478;-70
2023/04/15 08:42:30;;;;;;;18.07;14.37;;;;;;;;;;5119714;27;20506;-70
2023/04/15 08:44:59;;;;;;;18.43;13.10;;;;;;;;;;5121156;27;20458;-70
2023/04/15 08:47:27;;;;;;;17.80;13.73;;;;;;;;;;5124789;27;20477;-70
2023/04/15 08:49:55;;;;;;;17.60;12.60;;;;;;;;;;5123401;27;20449;-69
2023/04/15 08:52:24;;;;;;;16.13;12.53;;;;;;;;;;5122706;27;20506;-71
2023/04/15 08:54:51;;;;;;;15.30;12.20;;;;;;;;;;5118838;27;20454;-71
2023/04/15 08:57:18;;;;;;;15.20;12.67;;;;;;;;;;5086107;28;20507;-71
2023/04/15 08:59:44;;;;;;;17.53;12.70;;;;;;;;;;5096037;28;20500;-70
2023/04/15 09:02:11;;;;;;;14.53;11.80;;;;;;;;;;5108898;28;20495;-71
2023/04/15 09:04:38;;;;;;;13.00;10.80;;;;;;;;;;5102957;28;20553;-71
2023/04/15 09:07:05;;;;;;;14.50;11.33;;;;;;;;;;5099256;28;20486;-71
2023/04/15 09:09:32;;;;;;;14.10;10.67;;;;;;;;;;5108789;28;20460;-71
2023/04/15 09:12:01;;;;;;;12.30;10.30;;;;;;;;;;5091328;28;20479;-71
2023/04/15 09:14:30;;;;;;;16.67;11.83;;;;;;;;;;5094502;28;20490;-71
2023/04/15 09:16:57;;;;;;;13.67;10.80;;;;;;;;;;5116143;27;20501;-71
2023/04/15 09:19:25;;;;;;;15.07;10.27;;;;;;;;;;5117289;27;20450;-71
2023/04/15 09:21:51;;;;;;;14.63;9.50;;;;;;;;;;5120657;27;20488;-68
2023/04/15 09:24:18;;;;;;;13.40;10.87;;;;;;;;;;5107507;28;20458;-70
2023/04/15 09:26:46;;;;;;;10.93;9.73;;;;;;;;;;5113836;27;20505;-70
2023/04/15 09:29:13;;;;;;;12.17;9.93;;;;;;;;;;5108209;28;20894;-70
2023/04/15 09:31:41;;;;;;;12.00;10.30;;;;;;;;;;5127130;27;20507;-71
2023/04/15 09:34:07;;;;;;;13.23;10.27;;;;;;;;;;5119103;27;20884;-71
2023/04/15 09:36:51;;;;;;;11.27;8.97;;;;;;;;;;5122852;28;20486;-71
2023/04/15 09:39:17;;;;;;;9.13;8.07;;;;;;;;;;5118445;27;20450;-71
2023/04/15 09:41:44;;;;;;;9.00;7.73;;;;;;;;;;5103630;28;20527;-71
2023/04/15 09:44:25;;;;;;;9.40;7.90;;;;;;;;;;5109796;28;20511;-71
2023/04/15 09:46:51;;;;;;;8.90;7.23;;;;;;;;;;5116360;27;20477;-70
2023/04/15 09:49:18;;;;;;;11.20;8.47;;;;;;;;;;5114279;28;20467;-70
2023/04/15 09:51:44;;;;;;;10.10;6.80;;;;;;;;;;5108154;27;20481;-71
2023/04/15 09:54:11;;;;;;;8.70;7.13;;;;;;;;;;5119767;28;20514;-71
2023/04/15 09:56:40;;;;;;;8.00;6.50;;;;;;;;;;5115061;27;20481;-71
2023/04/15 09:59:07;;;;;;;9.60;7.57;;;;;;;;;;5116652;28;20949;-70
2023/04/15 10:01:35;;;;;;;9.97;7.83;;;;;;;;;;5121650;27;20478;-71
2023/04/15 10:04:03;;;;;;;9.27;7.33;;;;;;;;;;5123420;27;20513;-71
2023/04/15 10:06:30;;;;;;;9.60;7.77;;;;;;;;;;5123737;27;20931;-70
2023/04/15 10:08:57;;;;;;;8.90;7.30;;;;;;;;;;5121133;28;20534;-70
2023/04/15 10:11:24;;;;;;;7.87;6.67;;;;;;;;;;5102726;28;20891;-70
2023/04/15 10:13:51;;;;;;;9.87;7.30;;;;;;;;;;5096258;28;20603;-70
2023/04/15 10:16:19;;;;;;;9.90;7.60;;;;;;;;;;5101886;28;20519;-70
2023/04/15 10:18:49;;;;;;;8.93;6.90;;;;;;;;;;5102079;28;20490;-71
2023/04/15 10:21:17;;;;;;;10.70;6.90;;;;;;;;;;5108789;28;20561;-70
2023/04/15 10:23:44;;;;;;;8.60;6.67;;;;;;;;;;5105439;28;20479;-70
2023/04/15 10:26:11;;;;;;;8.70;7.17;;;;;;;;;;5106383;28;20475;-70
2023/04/15 10:28:37;;;;;;;7.80;6.20;;;;;;;;;;5100922;28;21141;-71
2023/04/15 10:31:04;;;;;;;8.27;6.90;;;;;;;;;;5105762;28;20506;-71
2023/04/15 10:33:31;;;;;;;9.50;7.10;;;;;;;;;;5088585;28;20517;-70
2023/04/15 10:36:00;;;;;;;8.60;7.43;;;;;;;;;;5105348;28;20513;-71
2023/04/15 10:38:36;;;;;;;7.70;6.90;;;;;;;;;;5094938;28;20452;-71
2023/04/15 10:41:12;;;;;;;7.83;5.70;;;;;;;;;;5089194;28;20492;-71
2023/04/15 10:43:39;;;;;;;8.00;6.60;;;;;;;;;;5087031;28;20550;-73
2023/04/15 10:46:05;;;;;;;7.23;6.40;;;;;;;;;;5096328;28;20475;-71
2023/04/15 10:48:32;;;;;;;7.17;6.20;;;;;;;;;;5098865;28;20887;-70
2023/04/15 10:51:02;;;;;;;6.60;5.90;;;;;;;;;;5104773;27;20865;-70
2023/04/15 10:53:29;;;;;;;8.50;6.70;;;;;;;;;;5126822;27;20507;-73
2023/04/15 10:55:57;;;;;;;8.03;6.17;;;;;;;;;;5107491;28;20495;-71
2023/04/15 10:58:23;;;;;;;9.53;7.10;;;;;;;;;;5101315;28;20471;-71
2023/04/15 11:00:51;;;;;;;7.03;5.83;;;;;;;;;;5096236;28;20467;-71
2023/04/15 11:03:17;;;;;;;8.00;7.20;;;;;;;;;;5098918;28;20486;-70
2023/04/15 11:05:50;;;;;;;7.90;6.47;;;;;;;;;;5082234;28;20475;-72
2023/04/15 11:08:18;;;;;;;6.47;5.87;;;;;;;;;;5094083;28;20634;-72
2023/04/15 11:10:54;;;;;;;7.37;6.60;;;;;;;;;;5102999;28;20487;-73
2023/04/15 11:13:27;;;;;;;8.67;7.00;;;;;;;;;;5099150;28;20497;-73
2023/04/15 11:15:56;;;;;;;8.67;7.10;;;;;;;;;;5083511;28;20926;-73
2023/04/15 11:18:24;;;;;;;8.53;7.40;;;;;;;;;;5086199;28;20525;-73
2023/04/15 11:20:51;;;;;;;8.77;7.50;;;;;;;;;;5094000;28;20480;-71
2023/04/15 11:23:20;;;;;;;8.73;6.30;;;;;;;;;;5101156;28;20486;-70
2023/04/15 11:25:47;;;;;;;8.67;7.77;;;;;;;;;;5110948;28;20535;-71
2023/04/15 11:28:13;;;;;;;8.40;7.50;;;;;;;;;;5113627;27;20454;-72
2023/04/15 11:30:40;;;;;;;8.73;7.83;;;;;;;;;;5107676;28;20840;-68
2023/04/15 11:33:08;;;;;;;8.03;7.27;;;;;;;;;;5116941;28;20497;-70
2023/04/15 11:35:35;;;;;;;8.53;6.67;;;;;;;;;;5110742;28;20470;-68
2023/04/15 11:38:02;;;;;;;9.60;6.90;;;;;;;;;;5120272;28;20511;-68
2023/04/15 11:40:32;;;;;;;8.00;7.20;;;;;;;;;;5119177;28;20502;-68
2023/04/15 11:43:05;;;;;;;7.40;6.60;;;;;;;;;;5125192;28;20910;-68
2023/04/15 11:45:31;;;;;;;8.03;7.23;;;;;;;;;;5118812;28;20478;-68
2023/04/15 11:48:05;;;;;;;7.13;6.47;;;;;;;;;;5118053;28;20469;-69
2023/04/15 11:50:31;;;;;;;7.57;6.77;;;;;;;;;;5110616;28;20513;-69
2023/04/15 11:52:58;;;;;;;7.00;6.30;;;;;;;;;;5094028;28;20457;-68
2023/04/15 11:55:25;;;;;;;8.27;7.47;;;;;;;;;;5090220;28;20990;-70
2023/04/15 11:58:08;;;;;;;6.73;6.13;;;;;;;;;;5087702;28;20528;-68
2023/04/15 12:00:35;;;;;;;7.20;6.50;;;;;;;;;;5113233;28;20510;-69
2023/04/15 12:03:14;;;;;;;7.70;6.87;;;;;;;;;;5100228;28;20495;-69
2023/04/15 12:05:59;;;;;;;7.53;6.43;;;;;;;;;;5099171;28;20478;-68
2023/04/15 12:08:26;;;;;;;7.63;6.77;;;;;;;;;;5092541;28;20479;-70
2023/04/15 12:10:58;;;;;;;7.83;6.90;;;;;;;;;;5105175;28;20574;-71
2023/04/15 12:13:27;;;;;;;7.00;6.40;;;;;;;;;;5107332;28;20481;-71
2023/04/15 12:15:55;;;;;;;7.40;6.70;;;;;;;;;;5106831;28;20505;-71
2023/04/15 12:18:27;;;;;;;6.50;5.90;;;;;;;;;;5118783;28;20449;-71
2023/04/15 12:20:54;;;;;;;7.30;6.60;;;;;;;;;;5108548;28;20474;-70
2023/04/15 12:23:20;;;;;;;7.77;6.70;;;;;;;;;;5112424;28;20517;-71
2023/04/15 12:25:51;;;;;;;7.83;6.77;;;;;;;;;;5111663;28;20538;-71
2023/04/15 12:28:18;;;;;;;7.47;6.20;;;;;;;;;;5120015;28;20446;-71
2023/04/15 12:30:51;;;;;;;6.90;6.07;;;;;;;;;;5109360;28;20486;-72
2023/04/15 12:33:17;;;;;;;7.67;7.00;;;;;;;;;;5118372;28;20446;-72
2023/04/15 12:35:44;;;;;;;6.43;5.83;;;;;;;;;;5112997;28;20478;-71
2023/04/15 12:38:10;;;;;;;6.37;5.77;;;;;;;;;;5122234;28;20927;-71
2023/04/15 12:40:37;;;;;;;6.90;6.30;;;;;;;;;;5114734;27;20511;-70
2023/04/15 12:43:03;;;;;;;7.87;6.43;;;;;;;;;;5098932;28;20454;-71
2023/04/15 12:45:29;;;;;;;6.77;5.70;;;;;;;;;;5099247;28;20493;-71
2023/04/15 12:48:00;;;;;;;6.60;5.97;;;;;;;;;;5104719;28;20450;-72
2023/04/15 12:50:26;;;;;;;8.43;6.30;;;;;;;;;;5110418;28;20467;-70
2023/04/15 12:52:53;;;;;;;6.50;5.90;;;;;;;;;;5105076;28;20471;-71
2023/04/15 12:55:19;;;;;;;6.80;6.10;;;;;;;;;;5103896;28;20511;-71
2023/04/15 12:57:46;;;;;;;5.83;5.33;;;;;;;;;;5100178;28;20486;-72
2023/04/15 13:00:15;;;;;;;5.63;5.10;;;;;;;;;;5104991;28;20479;-71
2023/04/15 13:02:43;;;;;;;4.90;4.40;;;;;;;;;;5094582;28;20510;-71
2023/04/15 13:05:14;;;;;;;5.77;5.23;;;;;;;;;;5109219;28;20451;-71
2023/04/15 13:07:41;;;;;;;7.53;5.30;;;;;;;;;;5104775;28;20455;-71
2023/04/15 13:10:08;;;;;;;5.20;4.70;;;;;;;;;;5114084;28;20458;-71
2023/04/15 13:12:35;;;;;;;5.93;5.37;;;;;;;;;;5085696;28;20512;-72
2023/04/15 13:15:02;;;;;;;6.40;5.13;;;;;;;;;;5094507;28;20482;-71
2023/04/15 13:17:29;;;;;;;6.33;5.67;;;;;;;;;;5107958;28;20482;-69
2023/04/15 13:19:55;;;;;;;6.30;5.60;;;;;;;;;;5097754;28;20812;-72
2023/04/15 13:22:25;;;;;;;8.93;6.40;;;;;;;;;;5118977;28;21012;-72
2023/04/15 13:24:52;;;;;;;6.83;6.20;;;;;;;;;;5124942;27;20450;-72
2023/04/15 13:27:22;;;;;;;7.23;6.60;;;;;;;;;;5121723;28;21103;-71
2023/04/15 13:29:48;;;;;;;7.50;6.70;;;;;;;;;;5114774;28;20446;-71
2023/04/15 13:32:15;;;;;;;7.20;6.40;;;;;;;;;;5101162;28;20470;-72
2023/04/15 13:34:41;;;;;;;8.03;6.40;;;;;;;;;;5102640;28;21014;-71
2023/04/15 13:37:07;;;;;;;8.43;7.50;;;;;;;;;;5103861;28;20467;-72
2023/04/15 13:39:35;;;;;;;7.60;6.90;;;;;;;;;;5106768;28;20483;-71
2023/04/15 13:42:02;;;;;;;9.00;7.60;;;;;;;;;;5120049;27;20478;-71
2023/04/15 13:44:29;;;;;;;9.13;7.57;;;;;;;;;;5126874;27;20457;-70
2023/04/15 13:46:58;;;;;;;11.40;8.47;;;;;;;;;;5107789;28;20505;-72
2023/04/15 13:49:24;;;;;;;8.87;7.97;;;;;;;;;;5101645;28;20483;-72
2023/04/15 13:51:51;;;;;;;10.20;9.20;;;;;;;;;;5118085;28;21097;-71
2023/04/15 13:54:17;;;;;;;9.53;8.47;;;;;;;;;;5124148;27;20582;-71
2023/04/15 13:56:45;;;;;;;10.70;9.10;;;;;;;;;;5117788;28;20513;-71
2023/04/15 13:59:12;;;;;;;10.37;8.60;;;;;;;;;;5119785;28;20446;-71
2023/04/15 14:01:40;;;;;;;15.63;9.90;;;;;;;;;;5118231;28;20933;-72
2023/04/15 14:04:06;;;;;;;10.80;9.70;;;;;;;;;;5116051;28;20546;-72
2023/04/15 14:06:33;;;;;;;11.27;10.07;;;;;;;;;;5104492;28;20484;-72
2023/04/15 14:08:59;;;;;;;14.00;9.70;;;;;;;;;;5109021;28;20513;-71
2023/04/15 14:11:26;;;;;;;12.23;10.87;;;;;;;;;;5089276;28;20487;-71
2023/04/15 14:13:54;;;;;;;12.57;11.27;;;;;;;;;;5099104;28;20491;-71
2023/04/15 14:16:22;;;;;;;12.70;10.93;;;;;;;;;;5100423;28;20512;-71
2023/04/15 14:18:48;;;;;;;12.47;10.97;;;;;;;;;;5107517;28;20533;-72
2023/04/15 14:21:14;;;;;;;12.30;11.00;;;;;;;;;;5100949;28;20957;-71
2023/04/15 14:23:41;;;;;;;14.77;11.67;;;;;;;;;;5097071;28;20480;-72
2023/04/15 14:26:07;;;;;;;13.80;12.27;;;;;;;;;;5088548;28;20495;-71